sensor_id;sensor_type;location;lat;lon;timestamp;P1;durP1;ratioP1;P2;durP2;ratioP2
12990;SDS011;6560;57.692;11.958;2022-10-31T00:00:48;69.38;;;33.50;;
12990;SDS011;6560;57.692;11.958;2022-10-31T00:03:14;75.07;;;33.50;;
12990;SDS011;6560;57.692;11.958;2022-10-31T00:05:42;72.03;;;33.03;;
12990;SDS011;6560;57.692;11.958;2022-10-31T00:08:09;75.28;;;32.72;;
12990;SDS011;6560;57.692;11.958;2022-10-31T00:10:37;73.03;;;32.65;;
12990;SDS011;6560;57.692;11.958;2022-10-31T00:13:03;65.20;;;30.42;;
12990;SDS011;6560;57.692;11.958;2022-10-31T00:15:28;67.85;;;31.65;;
12990;SDS011;6560;57.692;11.958;2022-10-31T00:17:54;78.40;;;31.30;;
12990;SDS011;6560;57.692;11.958;2022-10-31T00:20:19;61.80;;;28.75;;
12990;SDS011;6560;57.692;11.958;2022-10-31T00:22:45;63.03;;;28.50;;
12990;SDS011;6560;57.692;11.958;2022-10-31T00:25:10;60.25;;;27.58;;
12990;SDS011;6560;57.692;11.958;2022-10-31T00:27:36;69.30;;;30.17;;
12990;SDS011;6560;57.692;11.958;2022-10-31T00:30:01;64.07;;;28.10;;
12990;SDS011;6560;57.692;11.958;2022-10-31T00:32:28;58.35;;;28.55;;
12990;SDS011;6560;57.692;11.958;2022-10-31T00:34:55;60.38;;;29.20;;
12990;SDS011;6560;57.692;11.958;2022-10-31T00:37:20;62.25;;;29.13;;
12990;SDS011;6560;57.692;11.958;2022-10-31T00:39:46;66.20;;;29.23;;
12990;SDS011;6560;57.692;11.958;2022-10-31T00:42:13;61.88;;;29.20;;
12990;SDS011;6560;57.692;11.958;2022-10-31T00:44:39;67.75;;;30.55;;
12990;SDS011;6560;57.692;11.958;2022-10-31T00:47:04;70.82;;;29.65;;
12990;SDS011;6560;57.692;11.958;2022-10-31T00:49:30;76.65;;;32.92;;
12990;SDS011;6560;57.692;11.958;2022-10-31T00:51:56;75.70;;;31.98;;
12990;SDS011;6560;57.692;11.958;2022-10-31T00:54:21;79.65;;;32.63;;
12990;SDS011;6560;57.692;11.958;2022-10-31T00:56:46;70.95;;;31.80;;
12990;SDS011;6560;57.692;11.958;2022-10-31T00:59:12;75.47;;;31.63;;
12990;SDS011;6560;57.692;11.958;2022-10-31T01:01:37;78.00;;;32.33;;
12990;SDS011;6560;57.692;11.958;2022-10-31T01:04:03;75.82;;;31.95;;
12990;SDS011;6560;57.692;11.958;2022-10-31T01:06:28;81.50;;;32.13;;
12990;SDS011;6560;57.692;11.958;2022-10-31T01:08:54;72.07;;;32.67;;
12990;SDS011;6560;57.692;11.958;2022-10-31T01:11:21;73.57;;;31.75;;
12990;SDS011;6560;57.692;11.958;2022-10-31T01:13:49;80.15;;;33.85;;
12990;SDS011;6560;57.692;11.958;2022-10-31T01:16:17;78.15;;;31.98;;
12990;SDS011;6560;57.692;11.958;2022-10-31T01:18:45;73.72;;;32.67;;
12990;SDS011;6560;57.692;11.958;2022-10-31T01:21:15;76.38;;;32.67;;
12990;SDS011;6560;57.692;11.958;2022-10-31T01:23:41;74.90;;;32.13;;
12990;SDS011;6560;57.692;11.958;2022-10-31T01:26:17;80.70;;;33.17;;
12990;SDS011;6560;57.692;11.958;2022-10-31T01:31:12;94.18;;;34.00;;
12990;SDS011;6560;57.692;11.958;2022-10-31T01:33:39;83.05;;;35.25;;
12990;SDS011;6560;57.692;11.958;2022-10-31T01:36:11;87.90;;;34.85;;
12990;SDS011;6560;57.692;11.958;2022-10-31T01:38:37;91.97;;;33.53;;
12990;SDS011;6560;57.692;11.958;2022-10-31T01:41:03;96.40;;;37.13;;
12990;SDS011;6560;57.692;11.958;2022-10-31T01:48:49;91.95;;;37.17;;
12990;SDS011;6560;57.692;11.958;2022-10-31T01:51:16;95.38;;;36.63;;
12990;SDS011;6560;57.692;11.958;2022-10-31T01:53:44;109.60;;;38.42;;
12990;SDS011;6560;57.692;11.958;2022-10-31T01:56:11;98.38;;;38.38;;
12990;SDS011;6560;57.692;11.958;2022-10-31T01:58:38;99.28;;;36.95;;
12990;SDS011;6560;57.692;11.958;2022-10-31T02:01:04;110.80;;;38.45;;
12990;SDS011;6560;57.692;11.958;2022-10-31T02:03:30;87.15;;;37.25;;
12990;SDS011;6560;57.692;11.958;2022-10-31T02:05:57;97.20;;;37.03;;
12990;SDS011;6560;57.692;11.958;2022-10-31T02:08:26;90.03;;;35.92;;
12990;SDS011;6560;57.692;11.958;2022-10-31T02:10:53;93.78;;;37.47;;
12990;SDS011;6560;57.692;11.958;2022-10-31T02:13:19;100.68;;;38.63;;
12990;SDS011;6560;57.692;11.958;2022-10-31T02:15:49;90.93;;;35.90;;
12990;SDS011;6560;57.692;11.958;2022-10-31T02:18:17;100.10;;;39.60;;
12990;SDS011;6560;57.692;11.958;2022-10-31T02:35:06;93.10;;;36.83;;
12990;SDS011;6560;57.692;11.958;2022-10-31T02:37:29;86.05;;;34.53;;
12990;SDS011;6560;57.692;11.958;2022-10-31T02:40:42;84.10;;;33.63;;
12990;SDS011;6560;57.692;11.958;2022-10-31T02:45:54;78.50;;;32.83;;
12990;SDS011;6560;57.692;11.958;2022-10-31T02:48:27;104.00;;;35.88;;
12990;SDS011;6560;57.692;11.958;2022-10-31T02:50:56;83.78;;;32.08;;
12990;SDS011;6560;57.692;11.958;2022-10-31T02:53:25;79.60;;;32.65;;
12990;SDS011;6560;57.692;11.958;2022-10-31T02:56:01;84.78;;;34.75;;
12990;SDS011;6560;57.692;11.958;2022-10-31T02:58:31;81.32;;;33.60;;
12990;SDS011;6560;57.692;11.958;2022-10-31T03:11:43;81.25;;;33.65;;
12990;SDS011;6560;57.692;11.958;2022-10-31T03:14:27;72.53;;;31.73;;
12990;SDS011;6560;57.692;11.958;2022-10-31T03:17:05;65.20;;;29.38;;
12990;SDS011;6560;57.692;11.958;2022-10-31T03:19:34;89.15;;;33.47;;
12990;SDS011;6560;57.692;11.958;2022-10-31T03:24:50;84.43;;;33.50;;
12990;SDS011;6560;57.692;11.958;2022-10-31T03:27:20;79.57;;;32.35;;
12990;SDS011;6560;57.692;11.958;2022-10-31T03:29:49;85.97;;;34.10;;
12990;SDS011;6560;57.692;11.958;2022-10-31T03:32:36;87.40;;;36.42;;
12990;SDS011;6560;57.692;11.958;2022-10-31T03:35:07;89.55;;;34.90;;
12990;SDS011;6560;57.692;11.958;2022-10-31T03:37:34;126.78;;;39.42;;
12990;SDS011;6560;57.692;11.958;2022-10-31T03:40:01;124.03;;;37.95;;
12990;SDS011;6560;57.692;11.958;2022-10-31T03:42:31;111.72;;;36.47;;
12990;SDS011;6560;57.692;11.958;2022-10-31T03:45:04;93.10;;;35.80;;
12990;SDS011;6560;57.692;11.958;2022-10-31T03:47:34;105.90;;;38.15;;
12990;SDS011;6560;57.692;11.958;2022-10-31T03:50:05;107.70;;;35.45;;
12990;SDS011;6560;57.692;11.958;2022-10-31T03:55:42;78.93;;;31.40;;
12990;SDS011;6560;57.692;11.958;2022-10-31T03:58:29;92.57;;;31.60;;
12990;SDS011;6560;57.692;11.958;2022-10-31T04:01:03;92.60;;;32.53;;
12990;SDS011;6560;57.692;11.958;2022-10-31T04:03:32;95.85;;;33.75;;
12990;SDS011;6560;57.692;11.958;2022-10-31T04:06:05;90.88;;;34.03;;
12990;SDS011;6560;57.692;11.958;2022-10-31T04:08:36;81.15;;;32.53;;
12990;SDS011;6560;57.692;11.958;2022-10-31T04:11:06;77.60;;;31.42;;
12990;SDS011;6560;57.692;11.958;2022-10-31T04:13:34;93.35;;;34.22;;
12990;SDS011;6560;57.692;11.958;2022-10-31T04:16:02;78.13;;;30.52;;
12990;SDS011;6560;57.692;11.958;2022-10-31T04:18:28;94.40;;;32.78;;
12990;SDS011;6560;57.692;11.958;2022-10-31T04:21:04;70.07;;;29.63;;
12990;SDS011;6560;57.692;11.958;2022-10-31T04:23:31;91.45;;;32.78;;
12990;SDS011;6560;57.692;11.958;2022-10-31T04:25:57;82.97;;;33.33;;
12990;SDS011;6560;57.692;11.958;2022-10-31T04:28:23;78.07;;;31.35;;
12990;SDS011;6560;57.692;11.958;2022-10-31T04:30:48;83.05;;;30.92;;
12990;SDS011;6560;57.692;11.958;2022-10-31T04:33:14;94.68;;;32.72;;
12990;SDS011;6560;57.692;11.958;2022-10-31T04:35:39;83.72;;;30.83;;
12990;SDS011;6560;57.692;11.958;2022-10-31T04:38:05;83.55;;;31.08;;
12990;SDS011;6560;57.692;11.958;2022-10-31T04:40:31;78.82;;;30.45;;
12990;SDS011;6560;57.692;11.958;2022-10-31T04:42:56;81.55;;;31.08;;
12990;SDS011;6560;57.692;11.958;2022-10-31T04:45:22;90.72;;;32.47;;
12990;SDS011;6560;57.692;11.958;2022-10-31T04:47:47;78.90;;;31.77;;
12990;SDS011;6560;57.692;11.958;2022-10-31T04:50:12;96.88;;;33.58;;
12990;SDS011;6560;57.692;11.958;2022-10-31T04:52:39;87.18;;;31.35;;
12990;SDS011;6560;57.692;11.958;2022-10-31T04:55:06;98.68;;;33.70;;
12990;SDS011;6560;57.692;11.958;2022-10-31T04:57:32;92.90;;;33.40;;
12990;SDS011;6560;57.692;11.958;2022-10-31T05:00:04;97.93;;;35.60;;
12990;SDS011;6560;57.692;11.958;2022-10-31T05:02:30;89.15;;;34.88;;
12990;SDS011;6560;57.692;11.958;2022-10-31T05:04:56;96.93;;;34.33;;
12990;SDS011;6560;57.692;11.958;2022-10-31T05:07:21;99.10;;;35.45;;
12990;SDS011;6560;57.692;11.958;2022-10-31T05:09:47;96.15;;;32.42;;
12990;SDS011;6560;57.692;11.958;2022-10-31T05:12:12;94.32;;;32.60;;
12990;SDS011;6560;57.692;11.958;2022-10-31T05:14:38;87.10;;;32.17;;
12990;SDS011;6560;57.692;11.958;2022-10-31T05:17:03;79.82;;;31.27;;
12990;SDS011;6560;57.692;11.958;2022-10-31T05:19:28;91.30;;;30.60;;
12990;SDS011;6560;57.692;11.958;2022-10-31T05:21:54;76.07;;;26.92;;
12990;SDS011;6560;57.692;11.958;2022-10-31T05:24:19;88.03;;;30.67;;
12990;SDS011;6560;57.692;11.958;2022-10-31T05:26:46;86.05;;;30.73;;
12990;SDS011;6560;57.692;11.958;2022-10-31T05:29:12;87.35;;;30.70;;
12990;SDS011;6560;57.692;11.958;2022-10-31T05:31:38;86.53;;;30.35;;
12990;SDS011;6560;57.692;11.958;2022-10-31T05:34:03;78.93;;;30.15;;
12990;SDS011;6560;57.692;11.958;2022-10-31T05:36:29;88.18;;;29.95;;
12990;SDS011;6560;57.692;11.958;2022-10-31T05:38:54;61.72;;;27.15;;
12990;SDS011;6560;57.692;11.958;2022-10-31T05:41:20;80.63;;;29.88;;
12990;SDS011;6560;57.692;11.958;2022-10-31T05:43:45;84.80;;;28.67;;
12990;SDS011;6560;57.692;11.958;2022-10-31T05:46:11;91.53;;;30.30;;
12990;SDS011;6560;57.692;11.958;2022-10-31T05:48:36;65.68;;;27.33;;
12990;SDS011;6560;57.692;11.958;2022-10-31T05:51:01;63.97;;;25.35;;
12990;SDS011;6560;57.692;11.958;2022-10-31T05:53:27;72.78;;;26.23;;
12990;SDS011;6560;57.692;11.958;2022-10-31T05:55:52;51.17;;;23.73;;
12990;SDS011;6560;57.692;11.958;2022-10-31T05:58:18;58.30;;;23.63;;
12990;SDS011;6560;57.692;11.958;2022-10-31T06:00:43;55.10;;;24.05;;
12990;SDS011;6560;57.692;11.958;2022-10-31T06:03:09;54.22;;;23.35;;
12990;SDS011;6560;57.692;11.958;2022-10-31T06:05:35;55.83;;;22.63;;
12990;SDS011;6560;57.692;11.958;2022-10-31T06:08:00;46.25;;;20.45;;
12990;SDS011;6560;57.692;11.958;2022-10-31T06:10:26;47.45;;;22.02;;
12990;SDS011;6560;57.692;11.958;2022-10-31T06:12:52;46.53;;;21.65;;
12990;SDS011;6560;57.692;11.958;2022-10-31T06:15:17;44.58;;;21.63;;
12990;SDS011;6560;57.692;11.958;2022-10-31T06:17:43;49.80;;;21.17;;
12990;SDS011;6560;57.692;11.958;2022-10-31T06:20:09;50.00;;;21.75;;
12990;SDS011;6560;57.692;11.958;2022-10-31T06:22:35;49.35;;;21.73;;
12990;SDS011;6560;57.692;11.958;2022-10-31T06:25:00;56.80;;;22.35;;
12990;SDS011;6560;57.692;11.958;2022-10-31T06:27:26;47.97;;;22.73;;
12990;SDS011;6560;57.692;11.958;2022-10-31T06:29:52;61.75;;;24.23;;
12990;SDS011;6560;57.692;11.958;2022-10-31T06:32:17;52.40;;;22.67;;
12990;SDS011;6560;57.692;11.958;2022-10-31T06:34:43;55.60;;;24.35;;
12990;SDS011;6560;57.692;11.958;2022-10-31T06:37:11;44.83;;;22.15;;
12990;SDS011;6560;57.692;11.958;2022-10-31T06:39:37;45.65;;;23.23;;
12990;SDS011;6560;57.692;11.958;2022-10-31T06:42:03;49.38;;;22.05;;
12990;SDS011;6560;57.692;11.958;2022-10-31T06:44:29;55.03;;;22.02;;
12990;SDS011;6560;57.692;11.958;2022-10-31T06:46:55;56.42;;;22.58;;
12990;SDS011;6560;57.692;11.958;2022-10-31T06:49:20;49.50;;;22.42;;
12990;SDS011;6560;57.692;11.958;2022-10-31T06:51:49;44.38;;;21.83;;
12990;SDS011;6560;57.692;11.958;2022-10-31T06:54:15;67.00;;;23.45;;
12990;SDS011;6560;57.692;11.958;2022-10-31T06:56:41;56.10;;;23.50;;
12990;SDS011;6560;57.692;11.958;2022-10-31T06:59:07;56.10;;;24.05;;
12990;SDS011;6560;57.692;11.958;2022-10-31T07:01:32;63.50;;;26.45;;
12990;SDS011;6560;57.692;11.958;2022-10-31T07:03:57;65.93;;;25.42;;
12990;SDS011;6560;57.692;11.958;2022-10-31T07:06:23;58.92;;;24.73;;
12990;SDS011;6560;57.692;11.958;2022-10-31T07:08:48;73.68;;;25.27;;
12990;SDS011;6560;57.692;11.958;2022-10-31T07:11:14;70.43;;;25.67;;
12990;SDS011;6560;57.692;11.958;2022-10-31T07:13:39;68.25;;;25.50;;
12990;SDS011;6560;57.692;11.958;2022-10-31T07:16:05;56.00;;;20.95;;
12990;SDS011;6560;57.692;11.958;2022-10-31T07:18:31;60.45;;;23.17;;
12990;SDS011;6560;57.692;11.958;2022-10-31T07:20:57;60.28;;;22.77;;
12990;SDS011;6560;57.692;11.958;2022-10-31T07:23:23;57.65;;;22.30;;
12990;SDS011;6560;57.692;11.958;2022-10-31T07:25:48;57.90;;;21.92;;
12990;SDS011;6560;57.692;11.958;2022-10-31T07:28:19;57.00;;;21.15;;
12990;SDS011;6560;57.692;11.958;2022-10-31T07:30:48;60.75;;;23.25;;
12990;SDS011;6560;57.692;11.958;2022-10-31T07:33:15;58.90;;;23.20;;
12990;SDS011;6560;57.692;11.958;2022-10-31T07:35:40;42.47;;;21.23;;
12990;SDS011;6560;57.692;11.958;2022-10-31T07:38:09;51.40;;;21.70;;
12990;SDS011;6560;57.692;11.958;2022-10-31T07:40:36;44.15;;;20.20;;
12990;SDS011;6560;57.692;11.958;2022-10-31T07:43:01;53.25;;;22.80;;
12990;SDS011;6560;57.692;11.958;2022-10-31T07:45:27;44.13;;;21.00;;
12990;SDS011;6560;57.692;11.958;2022-10-31T07:47:53;45.20;;;21.02;;
12990;SDS011;6560;57.692;11.958;2022-10-31T07:50:20;45.65;;;21.92;;
12990;SDS011;6560;57.692;11.958;2022-10-31T07:52:47;51.95;;;22.67;;
12990;SDS011;6560;57.692;11.958;2022-10-31T07:55:13;36.85;;;20.80;;
12990;SDS011;6560;57.692;11.958;2022-10-31T07:57:39;37.38;;;20.85;;
12990;SDS011;6560;57.692;11.958;2022-10-31T08:00:06;41.97;;;20.55;;
12990;SDS011;6560;57.692;11.958;2022-10-31T08:02:33;33.67;;;19.33;;
12990;SDS011;6560;57.692;11.958;2022-10-31T08:04:59;37.92;;;19.90;;
12990;SDS011;6560;57.692;11.958;2022-10-31T08:07:25;45.45;;;20.40;;
12990;SDS011;6560;57.692;11.958;2022-10-31T08:09:51;43.08;;;21.15;;
12990;SDS011;6560;57.692;11.958;2022-10-31T08:12:17;42.10;;;18.98;;
12990;SDS011;6560;57.692;11.958;2022-10-31T08:14:43;38.38;;;20.83;;
12990;SDS011;6560;57.692;11.958;2022-10-31T08:17:09;40.50;;;18.77;;
12990;SDS011;6560;57.692;11.958;2022-10-31T08:19:34;39.83;;;19.33;;
12990;SDS011;6560;57.692;11.958;2022-10-31T08:22:00;37.05;;;19.05;;
12990;SDS011;6560;57.692;11.958;2022-10-31T08:24:26;37.85;;;20.40;;
12990;SDS011;6560;57.692;11.958;2022-10-31T08:26:51;34.70;;;20.58;;
12990;SDS011;6560;57.692;11.958;2022-10-31T08:29:17;37.47;;;19.48;;
12990;SDS011;6560;57.692;11.958;2022-10-31T08:31:42;33.38;;;19.88;;
12990;SDS011;6560;57.692;11.958;2022-10-31T08:34:08;35.00;;;21.40;;
12990;SDS011;6560;57.692;11.958;2022-10-31T08:36:33;33.65;;;20.33;;
12990;SDS011;6560;57.692;11.958;2022-10-31T08:38:59;31.20;;;19.50;;
12990;SDS011;6560;57.692;11.958;2022-10-31T08:41:25;29.08;;;18.15;;
12990;SDS011;6560;57.692;11.958;2022-10-31T08:43:50;33.50;;;18.90;;
12990;SDS011;6560;57.692;11.958;2022-10-31T08:46:16;25.08;;;16.75;;
12990;SDS011;6560;57.692;11.958;2022-10-31T08:48:42;31.80;;;17.25;;
12990;SDS011;6560;57.692;11.958;2022-10-31T08:51:08;26.23;;;15.43;;
12990;SDS011;6560;57.692;11.958;2022-10-31T08:53:33;26.33;;;17.92;;
12990;SDS011;6560;57.692;11.958;2022-10-31T08:55:59;32.92;;;18.45;;
12990;SDS011;6560;57.692;11.958;2022-10-31T08:58:24;29.17;;;18.15;;
12990;SDS011;6560;57.692;11.958;2022-10-31T09:00:51;27.95;;;18.50;;
12990;SDS011;6560;57.692;11.958;2022-10-31T09:03:22;24.83;;;17.83;;
12990;SDS011;6560;57.692;11.958;2022-10-31T09:05:49;27.95;;;18.80;;
12990;SDS011;6560;57.692;11.958;2022-10-31T09:08:17;24.77;;;18.45;;
12990;SDS011;6560;57.692;11.958;2022-10-31T09:10:42;25.52;;;17.98;;
12990;SDS011;6560;57.692;11.958;2022-10-31T09:13:12;29.05;;;18.88;;
12990;SDS011;6560;57.692;11.958;2022-10-31T09:15:39;32.15;;;19.83;;
12990;SDS011;6560;57.692;11.958;2022-10-31T09:18:08;31.52;;;20.30;;
12990;SDS011;6560;57.692;11.958;2022-10-31T09:20:35;31.83;;;18.52;;
12990;SDS011;6560;57.692;11.958;2022-10-31T09:23:06;25.23;;;18.42;;
12990;SDS011;6560;57.692;11.958;2022-10-31T09:25:34;26.40;;;16.08;;
12990;SDS011;6560;57.692;11.958;2022-10-31T09:28:00;21.40;;;14.00;;
12990;SDS011;6560;57.692;11.958;2022-10-31T09:30:28;22.50;;;14.35;;
12990;SDS011;6560;57.692;11.958;2022-10-31T09:32:55;21.98;;;13.82;;
12990;SDS011;6560;57.692;11.958;2022-10-31T09:35:22;21.67;;;12.32;;
12990;SDS011;6560;57.692;11.958;2022-10-31T09:37:53;19.52;;;11.68;;
12990;SDS011;6560;57.692;11.958;2022-10-31T09:40:21;16.83;;;10.98;;
12990;SDS011;6560;57.692;11.958;2022-10-31T09:42:55;20.95;;;11.20;;
12990;SDS011;6560;57.692;11.958;2022-10-31T09:45:26;16.52;;;10.88;;
12990;SDS011;6560;57.692;11.958;2022-10-31T09:50:45;17.10;;;9.88;;
12990;SDS011;6560;57.692;11.958;2022-10-31T09:55:54;16.52;;;10.90;;
12990;SDS011;6560;57.692;11.958;2022-10-31T09:58:21;20.50;;;10.57;;
12990;SDS011;6560;57.692;11.958;2022-10-31T10:01:00;19.60;;;11.85;;
12990;SDS011;6560;57.692;11.958;2022-10-31T10:03:49;21.42;;;12.15;;
12990;SDS011;6560;57.692;11.958;2022-10-31T10:06:18;16.58;;;12.00;;
12990;SDS011;6560;57.692;11.958;2022-10-31T10:08:47;20.00;;;12.95;;
12990;SDS011;6560;57.692;11.958;2022-10-31T10:25:22;23.60;;;11.23;;
12990;SDS011;6560;57.692;11.958;2022-10-31T10:31:03;19.77;;;10.35;;
12990;SDS011;6560;57.692;11.958;2022-10-31T10:36:20;19.73;;;10.32;;
12990;SDS011;6560;57.692;11.958;2022-10-31T10:38:55;22.70;;;10.05;;
12990;SDS011;6560;57.692;11.958;2022-10-31T10:41:23;18.80;;;8.82;;
12990;SDS011;6560;57.692;11.958;2022-10-31T10:43:50;19.70;;;9.43;;
12990;SDS011;6560;57.692;11.958;2022-10-31T10:46:17;18.55;;;9.40;;
12990;SDS011;6560;57.692;11.958;2022-10-31T10:51:46;18.35;;;9.50;;
12990;SDS011;6560;57.692;11.958;2022-10-31T10:59:53;10.05;;;7.43;;
12990;SDS011;6560;57.692;11.958;2022-10-31T11:02:21;14.77;;;7.18;;
12990;SDS011;6560;57.692;11.958;2022-10-31T11:04:50;15.10;;;7.68;;
12990;SDS011;6560;57.692;11.958;2022-10-31T11:07:17;13.45;;;7.55;;
12990;SDS011;6560;57.692;11.958;2022-10-31T11:09:43;12.10;;;6.82;;
12990;SDS011;6560;57.692;11.958;2022-10-31T11:12:15;7.30;;;5.25;;
12990;SDS011;6560;57.692;11.958;2022-10-31T11:14:50;10.93;;;6.22;;
12990;SDS011;6560;57.692;11.958;2022-10-31T11:17:36;13.52;;;5.72;;
12990;SDS011;6560;57.692;11.958;2022-10-31T11:22:40;8.85;;;4.47;;
12990;SDS011;6560;57.692;11.958;2022-10-31T11:25:20;11.60;;;4.00;;
12990;SDS011;6560;57.692;11.958;2022-10-31T11:28:02;14.27;;;5.05;;
12990;SDS011;6560;57.692;11.958;2022-10-31T11:30:30;10.73;;;3.88;;
12990;SDS011;6560;57.692;11.958;2022-10-31T11:33:00;8.13;;;3.92;;
12990;SDS011;6560;57.692;11.958;2022-10-31T11:35:26;13.20;;;3.80;;
12990;SDS011;6560;57.692;11.958;2022-10-31T11:37:54;7.03;;;3.40;;
12990;SDS011;6560;57.692;11.958;2022-10-31T11:40:30;7.88;;;4.00;;
12990;SDS011;6560;57.692;11.958;2022-10-31T11:42:57;12.23;;;3.92;;
12990;SDS011;6560;57.692;11.958;2022-10-31T11:47:50;11.10;;;3.30;;
12990;SDS011;6560;57.692;11.958;2022-10-31T11:50:22;7.70;;;3.22;;
12990;SDS011;6560;57.692;11.958;2022-10-31T11:52:55;17.63;;;4.50;;
12990;SDS011;6560;57.692;11.958;2022-10-31T11:57:57;11.68;;;4.15;;
12990;SDS011;6560;57.692;11.958;2022-10-31T12:05:51;9.32;;;3.58;;
12990;SDS011;6560;57.692;11.958;2022-10-31T12:08:20;9.90;;;3.88;;
12990;SDS011;6560;57.692;11.958;2022-10-31T12:11:01;12.52;;;4.10;;
12990;SDS011;6560;57.692;11.958;2022-10-31T12:16:26;11.23;;;3.08;;
12990;SDS011;6560;57.692;11.958;2022-10-31T12:19:00;10.50;;;3.55;;
12990;SDS011;6560;57.692;11.958;2022-10-31T12:27:39;7.20;;;2.83;;
12990;SDS011;6560;57.692;11.958;2022-10-31T12:35:23;19.88;;;4.03;;
12990;SDS011;6560;57.692;11.958;2022-10-31T12:38:22;10.55;;;3.13;;
12990;SDS011;6560;57.692;11.958;2022-10-31T12:41:13;9.13;;;3.58;;
12990;SDS011;6560;57.692;11.958;2022-10-31T12:52:59;10.30;;;3.80;;
12990;SDS011;6560;57.692;11.958;2022-10-31T12:55:44;12.93;;;4.25;;
12990;SDS011;6560;57.692;11.958;2022-10-31T12:58:38;13.23;;;3.35;;
12990;SDS011;6560;57.692;11.958;2022-10-31T13:01:17;11.15;;;3.22;;
12990;SDS011;6560;57.692;11.958;2022-10-31T13:03:52;11.50;;;3.60;;
12990;SDS011;6560;57.692;11.958;2022-10-31T13:06:35;7.45;;;2.60;;
12990;SDS011;6560;57.692;11.958;2022-10-31T13:09:10;13.23;;;4.25;;
12990;SDS011;6560;57.692;11.958;2022-10-31T13:11:44;10.30;;;4.43;;
12990;SDS011;6560;57.692;11.958;2022-10-31T13:14:17;9.13;;;3.83;;
12990;SDS011;6560;57.692;11.958;2022-10-31T13:16:47;6.07;;;4.32;;
12990;SDS011;6560;57.692;11.958;2022-10-31T13:19:27;10.55;;;5.05;;
12990;SDS011;6560;57.692;11.958;2022-10-31T13:24:56;6.70;;;4.25;;
12990;SDS011;6560;57.692;11.958;2022-10-31T13:27:29;15.30;;;5.00;;
12990;SDS011;6560;57.692;11.958;2022-10-31T13:30:03;14.38;;;4.90;;
12990;SDS011;6560;57.692;11.958;2022-10-31T13:32:39;9.73;;;3.95;;
12990;SDS011;6560;57.692;11.958;2022-10-31T13:35:18;9.32;;;4.20;;
12990;SDS011;6560;57.692;11.958;2022-10-31T13:37:54;13.45;;;4.25;;
12990;SDS011;6560;57.692;11.958;2022-10-31T13:46:36;7.55;;;3.95;;
12990;SDS011;6560;57.692;11.958;2022-10-31T13:49:04;8.25;;;4.05;;
12990;SDS011;6560;57.692;11.958;2022-10-31T13:51:46;14.00;;;4.93;;
12990;SDS011;6560;57.692;11.958;2022-10-31T13:54:23;12.85;;;4.72;;
12990;SDS011;6560;57.692;11.958;2022-10-31T13:56:57;12.27;;;4.63;;
12990;SDS011;6560;57.692;11.958;2022-10-31T13:59:23;17.42;;;5.07;;
12990;SDS011;6560;57.692;11.958;2022-10-31T14:02:00;10.18;;;4.47;;
12990;SDS011;6560;57.692;11.958;2022-10-31T14:04:32;11.80;;;4.35;;
12990;SDS011;6560;57.692;11.958;2022-10-31T14:07:13;15.18;;;4.70;;
12990;SDS011;6560;57.692;11.958;2022-10-31T14:09:52;10.00;;;4.45;;
12990;SDS011;6560;57.692;11.958;2022-10-31T14:15:02;13.93;;;5.15;;
12990;SDS011;6560;57.692;11.958;2022-10-31T14:17:37;12.25;;;4.53;;
12990;SDS011;6560;57.692;11.958;2022-10-31T14:22:35;12.05;;;4.82;;
12990;SDS011;6560;57.692;11.958;2022-10-31T14:27:54;10.27;;;6.68;;
12990;SDS011;6560;57.692;11.958;2022-10-31T14:30:21;12.15;;;6.40;;
12990;SDS011;6560;57.692;11.958;2022-10-31T14:32:53;11.27;;;6.78;;
12990;SDS011;6560;57.692;11.958;2022-10-31T14:35:24;10.65;;;6.10;;
12990;SDS011;6560;57.692;11.958;2022-10-31T14:38:05;14.25;;;7.10;;
12990;SDS011;6560;57.692;11.958;2022-10-31T14:51:07;8.02;;;5.90;;
12990;SDS011;6560;57.692;11.958;2022-10-31T14:56:17;15.40;;;5.90;;
12990;SDS011;6560;57.692;11.958;2022-10-31T14:58:48;10.52;;;6.40;;
12990;SDS011;6560;57.692;11.958;2022-10-31T15:01:25;11.95;;;6.35;;
12990;SDS011;6560;57.692;11.958;2022-10-31T15:03:53;14.90;;;5.85;;
12990;SDS011;6560;57.692;11.958;2022-10-31T15:06:26;10.80;;;5.82;;
12990;SDS011;6560;57.692;11.958;2022-10-31T15:08:53;15.48;;;6.28;;
12990;SDS011;6560;57.692;11.958;2022-10-31T15:11:23;9.23;;;6.22;;
12990;SDS011;6560;57.692;11.958;2022-10-31T15:13:54;12.52;;;6.22;;
12990;SDS011;6560;57.692;11.958;2022-10-31T15:16:25;17.98;;;6.20;;
12990;SDS011;6560;57.692;11.958;2022-10-31T15:18:57;18.33;;;7.13;;
12990;SDS011;6560;57.692;11.958;2022-10-31T15:21:26;16.33;;;6.05;;
12990;SDS011;6560;57.692;11.958;2022-10-31T15:23:54;12.52;;;6.35;;
12990;SDS011;6560;57.692;11.958;2022-10-31T15:26:21;14.73;;;7.15;;
12990;SDS011;6560;57.692;11.958;2022-10-31T15:29:04;12.77;;;7.05;;
12990;SDS011;6560;57.692;11.958;2022-10-31T15:31:31;15.70;;;7.07;;
12990;SDS011;6560;57.692;11.958;2022-10-31T15:34:02;11.52;;;6.55;;
12990;SDS011;6560;57.692;11.958;2022-10-31T15:36:39;16.33;;;6.28;;
12990;SDS011;6560;57.692;11.958;2022-10-31T15:39:05;10.18;;;5.85;;
12990;SDS011;6560;57.692;11.958;2022-10-31T15:44:15;11.77;;;7.47;;
12990;SDS011;6560;57.692;11.958;2022-10-31T15:46:55;20.67;;;9.30;;
12990;SDS011;6560;57.692;11.958;2022-10-31T15:51:55;29.42;;;10.50;;
12990;SDS011;6560;57.692;11.958;2022-10-31T15:54:23;31.38;;;11.65;;
12990;SDS011;6560;57.692;11.958;2022-10-31T15:56:49;24.48;;;11.32;;
12990;SDS011;6560;57.692;11.958;2022-10-31T15:59:17;25.45;;;10.68;;
12990;SDS011;6560;57.692;11.958;2022-10-31T16:02:00;39.30;;;13.25;;
12990;SDS011;6560;57.692;11.958;2022-10-31T16:04:27;30.80;;;13.50;;
12990;SDS011;6560;57.692;11.958;2022-10-31T16:07:00;29.95;;;12.98;;
12990;SDS011;6560;57.692;11.958;2022-10-31T16:09:37;30.15;;;12.50;;
12990;SDS011;6560;57.692;11.958;2022-10-31T16:12:02;24.33;;;12.73;;
12990;SDS011;6560;57.692;11.958;2022-10-31T16:14:29;28.15;;;13.20;;
12990;SDS011;6560;57.692;11.958;2022-10-31T16:16:58;22.75;;;12.90;;
12990;SDS011;6560;57.692;11.958;2022-10-31T16:22:06;21.27;;;12.32;;
12990;SDS011;6560;57.692;11.958;2022-10-31T16:24:51;28.50;;;14.02;;
12990;SDS011;6560;57.692;11.958;2022-10-31T16:27:22;23.15;;;11.95;;
12990;SDS011;6560;57.692;11.958;2022-10-31T16:29:54;23.50;;;12.55;;
12990;SDS011;6560;57.692;11.958;2022-10-31T16:32:25;22.30;;;11.45;;
12990;SDS011;6560;57.692;11.958;2022-10-31T16:35:16;26.92;;;12.93;;
12990;SDS011;6560;57.692;11.958;2022-10-31T16:37:44;26.70;;;11.07;;
12990;SDS011;6560;57.692;11.958;2022-10-31T16:40:10;26.65;;;11.80;;
12990;SDS011;6560;57.692;11.958;2022-10-31T16:42:39;26.83;;;12.63;;
12990;SDS011;6560;57.692;11.958;2022-10-31T16:45:06;26.07;;;12.13;;
12990;SDS011;6560;57.692;11.958;2022-10-31T16:47:32;26.37;;;12.00;;
12990;SDS011;6560;57.692;11.958;2022-10-31T16:49:58;28.52;;;11.90;;
12990;SDS011;6560;57.692;11.958;2022-10-31T16:52:25;24.92;;;11.68;;
12990;SDS011;6560;57.692;11.958;2022-10-31T16:54:50;25.75;;;12.00;;
12990;SDS011;6560;57.692;11.958;2022-10-31T16:57:17;26.73;;;12.40;;
12990;SDS011;6560;57.692;11.958;2022-10-31T16:59:51;26.27;;;12.33;;
12990;SDS011;6560;57.692;11.958;2022-10-31T17:02:18;23.77;;;10.63;;
12990;SDS011;6560;57.692;11.958;2022-10-31T17:04:44;25.48;;;11.60;;
12990;SDS011;6560;57.692;11.958;2022-10-31T17:07:10;25.27;;;11.50;;